Time;durP1;ratioP1;P1;durP2;ratioP2;P2;SDS_P1;SDS_P2;PMS_P1;PMS_P2;Temp;Humidity;BMP_temperature;BMP_pressure;BME280_temperature;BME280_humidity;BME280_pressure;Samples;Min_cycle;Max_cycle;Signal;HPM_P1;HPM_P2
2022/06/30 03:01:59;;;;;;;9.40;5.50;;;18.10;99.90;;;;;;6256489;22;20024;-83
2022/06/30 03:04:24;;;;;;;7.00;5.25;;;18.10;99.90;;;;;;6255899;22;20011;-83
2022/06/30 03:06:50;;;;;;;7.47;5.47;;;18.10;99.90;;;;;;6283201;22;20007;-85
2022/06/30 03:09:15;;;;;;;6.68;4.75;;;18.10;99.90;;;;;;6282418;22;20443;-83
2022/06/30 03:11:41;;;;;;;8.95;5.25;;;18.10;99.90;;;;;;6282837;22;20073;-84
2022/06/30 03:14:07;;;;;;;10.10;5.90;;;18.10;99.90;;;;;;6256179;22;20069;-82
2022/06/30 03:16:33;;;;;;;10.70;5.82;;;18.10;99.90;;;;;;6256175;22;20019;-82
2022/06/30 03:18:59;;;;;;;6.35;5.65;;;18.10;99.90;;;;;;6256172;22;20063;-83
2022/06/30 03:21:25;;;;;;;7.47;5.88;;;18.10;99.90;;;;;;6256171;22;20036;-80
2022/06/30 03:23:51;;;;;;;9.55;5.93;;;18.00;99.90;;;;;;6283498;22;20065;-87
2022/06/30 03:26:16;;;;;;;6.47;5.25;;;18.00;99.90;;;;;;6229672;22;20073;-84
2022/06/30 03:28:43;;;;;;;7.00;5.30;;;18.00;99.90;;;;;;6255574;22;20012;-84
2022/06/30 03:31:11;;;;;;;7.05;5.50;;;18.00;99.90;;;;;;6256971;22;20011;-84
2022/06/30 03:33:37;;;;;;;6.38;5.55;;;18.00;99.90;;;;;;6284015;22;20334;-83
2022/06/30 03:36:03;;;;;;;7.75;5.28;;;18.00;99.90;;;;;;6283749;22;20015;-84
2022/06/30 03:38:28;;;;;;;7.65;5.40;;;17.90;99.90;;;;;;6256379;22;20038;-84
2022/06/30 03:40:54;;;;;;;8.50;4.88;;;18.00;99.90;;;;;;6255580;22;20069;-84
2022/06/30 03:43:21;;;;;;;6.90;5.40;;;18.00;99.90;;;;;;6255464;22;20012;-85
2022/06/30 03:45:47;;;;;;;6.50;5.07;;;18.00;99.90;;;;;;6282853;22;20014;-84
2022/06/30 03:48:12;;;;;;;7.00;5.43;;;17.90;99.90;;;;;;6282991;22;20004;-83
2022/06/30 03:50:38;;;;;;;9.70;6.07;;;17.90;99.90;;;;;;6281303;22;20004;-85
2022/06/30 03:53:04;;;;;;;7.22;5.38;;;17.90;99.90;;;;;;6255126;22;20394;-84
2022/06/30 03:55:30;;;;;;;7.15;5.63;;;17.90;99.90;;;;;;6255647;22;20015;-84
2022/06/30 03:57:56;;;;;;;8.65;6.00;;;17.90;99.90;;;;;;6255381;22;20437;-84
2022/06/30 04:00:23;;;;;;;8.38;5.63;;;17.90;99.90;;;;;;6229925;22;20015;-84
2022/06/30 04:02:49;;;;;;;6.45;5.60;;;17.90;99.90;;;;;;6255271;22;20016;-83
2022/06/30 04:05:14;;;;;;;9.73;5.50;;;17.90;99.90;;;;;;6255216;22;20022;-84
2022/06/30 04:07:45;;;;;;;8.68;5.43;;;17.90;99.90;;;;;;6256250;22;20058;-84
2022/06/30 04:10:13;;;;;;;7.97;5.45;;;17.90;99.90;;;;;;6229678;22;20379;-85
2022/06/30 04:12:39;;;;;;;8.68;6.00;;;17.90;99.90;;;;;;6255333;22;20015;-83
2022/06/30 04:15:06;;;;;;;7.80;5.80;;;17.90;99.90;;;;;;6230919;22;20050;-85
2022/06/30 04:17:34;;;;;;;9.32;6.10;;;17.90;99.90;;;;;;6282961;22;20012;-84
2022/06/30 04:20:02;;;;;;;8.52;5.63;;;17.90;99.90;;;;;;6255666;22;20023;-84
2022/06/30 04:22:28;;;;;;;9.10;6.00;;;17.90;99.90;;;;;;6255407;22;20019;-84
2022/06/30 04:24:54;;;;;;;8.85;5.97;;;17.90;99.90;;;;;;6282515;22;20035;-86
2022/06/30 04:27:20;;;;;;;6.47;5.50;;;17.90;99.90;;;;;;6255780;22;20441;-84
2022/06/30 04:29:46;;;;;;;7.15;5.90;;;17.90;99.90;;;;;;6228938;22;20079;-84
2022/06/30 04:34:55;;;;;;;7.90;6.35;;;17.90;99.90;;;;;;6253793;22;20015;-83
2022/06/30 04:37:21;;;;;;;8.00;6.10;;;18.00;99.90;;;;;;6254098;22;20452;-82
2022/06/30 04:39:47;;;;;;;11.02;6.10;;;18.00;99.90;;;;;;6254041;22;20015;-83
2022/06/30 04:42:12;;;;;;;8.55;6.22;;;18.00;99.90;;;;;;6253414;22;20008;-83
2022/06/30 04:44:39;;;;;;;8.60;5.82;;;18.00;99.90;;;;;;6254093;22;20441;-84
2022/06/30 04:47:04;;;;;;;7.72;5.88;;;18.00;99.90;;;;;;6263979;22;20020;-82
2022/06/30 04:49:30;;;;;;;8.63;6.20;;;18.00;99.90;;;;;;6241328;22;20018;-83
2022/06/30 04:51:56;;;;;;;8.55;5.93;;;18.10;99.90;;;;;;6293063;22;20012;-83
2022/06/30 04:54:21;;;;;;;9.25;5.90;;;18.10;99.90;;;;;;6271576;22;20012;-82
2022/06/30 04:56:47;;;;;;;8.13;5.75;;;18.10;99.90;;;;;;6240895;22;20023;-82
2022/06/30 04:59:13;;;;;;;8.20;6.00;;;18.10;99.90;;;;;;6289540;22;20046;-81
2022/06/30 05:01:38;;;;;;;8.65;6.50;;;18.10;99.90;;;;;;6229577;22;20067;-85
2022/06/30 05:04:04;;;;;;;9.82;6.25;;;18.10;99.90;;;;;;6280726;22;20022;-84
2022/06/30 05:06:30;;;;;;;8.15;6.25;;;18.20;99.90;;;;;;6254126;22;20082;-84
2022/06/30 05:08:55;;;;;;;24.27;6.93;;;18.20;99.90;;;;;;6280535;22;20008;-82
2022/06/30 05:11:21;;;;;;;9.32;5.97;;;18.20;99.90;;;;;;6280569;22;20010;-84
2022/06/30 05:13:47;;;;;;;7.70;6.65;;;18.20;99.90;;;;;;6253252;22;20368;-82
2022/06/30 05:16:12;;;;;;;7.53;6.05;;;18.20;99.90;;;;;;6280390;22;20015;-83
2022/06/30 05:18:38;;;;;;;9.18;6.63;;;18.30;99.90;;;;;;6280320;22;20012;-85
2022/06/30 05:21:04;;;;;;;8.43;6.47;;;18.20;99.90;;;;;;6279310;22;20020;-82
2022/06/30 05:23:29;;;;;;;7.82;6.15;;;18.30;99.90;;;;;;6252845;22;20016;-84
2022/06/30 05:28:39;;;;;;;8.23;6.13;;;18.40;99.90;;;;;;6280668;22;20016;-85
2022/06/30 05:31:05;;;;;;;8.43;6.20;;;18.40;99.90;;;;;;6279312;22;20008;-85
2022/06/30 05:33:30;;;;;;;10.32;6.32;;;18.40;99.90;;;;;;6253318;22;20022;-85
2022/06/30 05:35:58;;;;;;;7.95;6.47;;;18.40;99.90;;;;;;6280120;22;20016;-85
2022/06/30 05:38:26;;;;;;;11.15;7.28;;;18.50;99.90;;;;;;6280275;22;20015;-86
2022/06/30 05:40:52;;;;;;;10.80;6.70;;;18.50;99.90;;;;;;6251967;22;20011;-83
2022/06/30 05:43:17;;;;;;;9.80;7.00;;;18.60;99.90;;;;;;6252592;22;20008;-85
2022/06/30 05:45:46;;;;;;;8.38;6.80;;;18.60;99.90;;;;;;6252263;22;20016;-82
2022/06/30 05:48:11;;;;;;;8.43;6.78;;;18.60;99.90;;;;;;6227142;22;20094;-82
2022/06/30 05:50:37;;;;;;;9.60;7.20;;;18.70;99.90;;;;;;6252630;22;20398;-83
2022/06/30 05:53:03;;;;;;;9.00;6.28;;;18.70;99.90;;;;;;6280850;22;20039;-83
2022/06/30 05:55:29;;;;;;;11.02;6.72;;;18.80;99.90;;;;;;6252748;22;20089;-82
2022/06/30 05:57:56;;;;;;;9.05;6.55;;;18.80;99.90;;;;;;6228378;22;20012;-84
2022/06/30 06:00:27;;;;;;;8.82;6.70;;;18.90;99.90;;;;;;6253474;22;20011;-85
2022/06/30 06:02:53;;;;;;;9.65;6.60;;;18.90;99.90;;;;;;6253599;22;20016;-83
2022/06/30 06:05:19;;;;;;;10.00;6.93;;;19.00;99.90;;;;;;6252904;22;20011;-83
2022/06/30 06:07:45;;;;;;;10.15;7.40;;;19.00;99.90;;;;;;6279702;22;20008;-83
2022/06/30 06:10:13;;;;;;;9.07;6.55;;;19.10;99.90;;;;;;6280106;22;20014;-85
2022/06/30 06:12:39;;;;;;;10.25;7.68;;;19.10;99.90;;;;;;6280680;22;20018;-83
2022/06/30 06:15:05;;;;;;;10.05;7.68;;;19.10;99.90;;;;;;6279245;22;20012;-86
2022/06/30 06:17:31;;;;;;;9.32;7.32;;;19.20;99.90;;;;;;6250941;22;20019;-83
2022/06/30 06:19:57;;;;;;;11.73;7.97;;;19.30;99.90;;;;;;6252871;22;20015;-86
2022/06/30 06:22:23;;;;;;;11.65;8.10;;;19.30;99.90;;;;;;6278810;22;20054;-84
2022/06/30 06:24:49;;;;;;;10.52;7.57;;;19.40;99.90;;;;;;6278031;22;20012;-84
2022/06/30 06:27:14;;;;;;;10.70;7.68;;;19.40;99.90;;;;;;6278286;22;20024;-82
2022/06/30 06:29:40;;;;;;;10.95;7.95;;;19.50;99.90;;;;;;6278072;22;20019;-84
2022/06/30 06:32:06;;;;;;;10.27;7.40;;;19.50;99.90;;;;;;6278528;22;20011;-81
2022/06/30 06:34:31;;;;;;;9.43;8.05;;;19.60;99.90;;;;;;6278612;22;20011;-82
2022/06/30 06:36:58;;;;;;;10.45;8.23;;;19.60;99.90;;;;;;6250696;22;20015;-82
2022/06/30 06:39:23;;;;;;;10.90;7.90;;;19.70;99.90;;;;;;6251620;22;20114;-84
2022/06/30 06:41:49;;;;;;;9.25;7.95;;;19.70;99.90;;;;;;6278601;22;20012;-83
2022/06/30 06:44:15;;;;;;;11.40;7.93;;;19.80;99.90;;;;;;6277978;22;20016;-81
2022/06/30 06:46:40;;;;;;;11.65;8.48;;;19.80;99.90;;;;;;6278800;22;20019;-82
2022/06/30 06:49:07;;;;;;;13.10;8.73;;;19.90;99.90;;;;;;6225797;22;20043;-81
2022/06/30 06:51:33;;;;;;;11.35;9.25;;;19.90;99.90;;;;;;6250996;22;20008;-82
2022/06/30 06:53:59;;;;;;;10.60;8.80;;;20.00;99.90;;;;;;6278182;22;20010;-84
2022/06/30 06:56:25;;;;;;;9.90;8.70;;;20.00;99.90;;;;;;6225733;22;20078;-82
2022/06/30 06:58:51;;;;;;;10.15;8.23;;;20.10;99.90;;;;;;6277773;22;20099;-84
2022/06/30 07:01:17;;;;;;;9.73;8.43;;;20.20;99.90;;;;;;6250821;22;20047;-84
2022/06/30 07:03:43;;;;;;;11.32;8.60;;;20.30;99.90;;;;;;6278053;22;20026;-86
2022/06/30 07:06:09;;;;;;;11.35;8.52;;;20.30;99.90;;;;;;6251046;22;20095;-84
2022/06/30 07:08:35;;;;;;;10.90;8.68;;;20.40;99.90;;;;;;6278522;22;20008;-84
2022/06/30 07:11:03;;;;;;;15.63;9.40;;;20.40;99.90;;;;;;6250580;22;20016;-84
2022/06/30 07:13:29;;;;;;;12.02;9.52;;;20.50;99.90;;;;;;6250911;22;20154;-83
2022/06/30 07:15:54;;;;;;;12.63;8.68;;;20.60;99.90;;;;;;6250641;22;20421;-84
2022/06/30 07:18:20;;;;;;;11.40;9.20;;;20.60;99.90;;;;;;6225762;22;20018;-83
2022/06/30 07:20:46;;;;;;;11.98;8.50;;;20.70;99.90;;;;;;6250657;22;20065;-84
2022/06/30 07:23:12;;;;;;;12.23;9.68;;;20.80;99.90;;;;;;6250941;22;20023;-83
2022/06/30 07:25:38;;;;;;;18.30;9.57;;;20.90;99.90;;;;;;6277630;22;20334;-84
2022/06/30 07:28:04;;;;;;;11.60;9.40;;;20.90;99.90;;;;;;6251106;22;20018;-83
2022/06/30 07:30:30;;;;;;;12.90;9.82;;;21.00;99.90;;;;;;6278093;22;20326;-86
2022/06/30 07:32:56;;;;;;;11.23;9.05;;;21.10;99.90;;;;;;6251273;22;20087;-85
2022/06/30 07:35:22;;;;;;;14.10;9.45;;;21.20;99.90;;;;;;6278055;22;20333;-83
2022/06/30 07:37:47;;;;;;;11.18;9.95;;;21.30;99.90;;;;;;6278043;22;20311;-83
2022/06/30 07:40:14;;;;;;;12.13;9.63;;;21.40;99.90;;;;;;6250597;22;20031;-84
2022/06/30 07:42:41;;;;;;;14.40;10.18;;;21.40;99.90;;;;;;6250755;22;20097;-84
2022/06/30 07:45:08;;;;;;;18.52;9.50;;;21.50;99.90;;;;;;6251138;22;20008;-83
2022/06/30 07:47:34;;;;;;;12.50;10.38;;;21.60;99.90;;;;;;6278466;22;20034;-84
2022/06/30 07:50:00;;;;;;;13.38;10.18;;;21.70;99.90;;;;;;6227394;22;20018;-85
2022/06/30 07:52:26;;;;;;;12.38;9.50;;;21.80;99.90;;;;;;6280308;22;20011;-83
2022/06/30 07:54:52;;;;;;;14.13;10.18;;;21.90;99.90;;;;;;6254486;22;20307;-85
2022/06/30 07:57:18;;;;;;;14.05;10.13;;;21.90;99.90;;;;;;6227998;22;20109;-85
2022/06/30 07:59:44;;;;;;;13.70;10.95;;;22.00;99.90;;;;;;6279480;22;20341;-86
2022/06/30 08:02:11;;;;;;;13.80;10.15;;;22.00;99.90;;;;;;6253491;22;20047;-83
2022/06/30 08:04:37;;;;;;;11.70;10.00;;;22.00;99.90;;;;;;6227060;22;20087;-83
2022/06/30 08:07:03;;;;;;;11.98;10.38;;;22.10;99.90;;;;;;6253539;22;20020;-83
2022/06/30 08:09:30;;;;;;;13.25;9.93;;;22.30;99.90;;;;;;6227014;22;20015;-85
2022/06/30 08:11:56;;;;;;;14.23;11.02;;;22.30;99.90;;;;;;6255452;22;20008;-88
2022/06/30 08:14:22;;;;;;;13.02;11.30;;;22.40;99.90;;;;;;6280910;22;20010;-86
2022/06/30 08:16:48;;;;;;;22.25;11.38;;;22.50;99.90;;;;;;6253272;22;20011;-86
2022/06/30 08:19:15;;;;;;;15.20;12.15;;;22.70;99.90;;;;;;6230029;22;20030;-86
2022/06/30 08:21:43;;;;;;;18.38;12.20;;;22.70;99.90;;;;;;6281637;22;20441;-85
2022/06/30 08:24:09;;;;;;;15.90;11.90;;;22.80;99.90;;;;;;6230123;22;20016;-86
2022/06/30 08:26:34;;;;;;;15.55;12.05;;;22.80;99.90;;;;;;6255058;22;20015;-85
2022/06/30 08:29:00;;;;;;;16.27;12.25;;;22.90;99.90;;;;;;6252386;22;20323;-84
2022/06/30 08:31:27;;;;;;;14.02;11.57;;;23.00;99.90;;;;;;6279453;22;20061;-82
2022/06/30 08:33:54;;;;;;;16.45;12.10;;;23.10;99.90;;;;;;6251735;22;20012;-86
2022/06/30 08:36:21;;;;;;;15.70;11.50;;;23.20;99.90;;;;;;6252827;22;20022;-86
2022/06/30 08:38:47;;;;;;;12.25;10.27;;;23.30;99.90;;;;;;6252461;22;20517;-87
2022/06/30 08:43:59;;;;;;;16.33;12.02;;;23.40;99.90;;;;;;6252065;22;20090;-86
2022/06/30 08:46:27;;;;;;;14.43;12.43;;;23.50;99.90;;;;;;6279205;22;20054;-83
2022/06/30 08:48:54;;;;;;;15.07;11.18;;;23.50;99.90;;;;;;6252783;22;20012;-88
2022/06/30 08:51:20;;;;;;;18.15;12.57;;;23.60;99.90;;;;;;6253748;22;20064;-87
2022/06/30 08:53:59;;;;;;;16.15;12.93;;;23.60;99.90;;;;;;6280380;22;20011;-87
2022/06/30 08:56:29;;;;;;;14.05;12.27;;;23.70;99.90;;;;;;6282514;22;20077;-86
2022/06/30 08:58:55;;;;;;;14.93;11.45;;;23.70;99.90;;;;;;6228105;22;20022;-86
2022/06/30 09:01:21;;;;;;;15.43;13.32;;;23.90;99.90;;;;;;6280929;22;20015;-85
2022/06/30 09:03:47;;;;;;;13.95;11.52;;;24.00;99.90;;;;;;6281067;22;20028;-84
2022/06/30 09:06:13;;;;;;;18.88;13.45;;;24.10;99.90;;;;;;6228428;22;20019;-84
2022/06/30 09:08:39;;;;;;;19.00;12.75;;;24.10;99.90;;;;;;6282287;22;20004;-85
2022/06/30 09:11:06;;;;;;;14.80;11.98;;;24.30;99.90;;;;;;6255231;22;20008;-87
2022/06/30 09:13:40;;;;;;;12.88;10.30;;;24.30;99.90;;;;;;6255258;22;20341;-84
2022/06/30 09:16:06;;;;;;;14.50;9.90;;;24.50;99.90;;;;;;6255975;22;20487;-84
2022/06/30 09:18:31;;;;;;;12.93;10.23;;;24.60;99.90;;;;;;6283769;22;20012;-85
2022/06/30 09:20:59;;;;;;;13.70;10.82;;;24.70;99.90;;;;;;6255629;22;20449;-87
2022/06/30 09:23:31;;;;;;;14.82;10.23;;;24.70;99.90;;;;;;6255022;22;20026;-87
2022/06/30 09:25:59;;;;;;;13.23;11.25;;;24.80;99.90;;;;;;6256891;22;20340;-85
2022/06/30 09:28:43;;;;;;;15.55;11.02;;;24.90;99.90;;;;;;6232224;22;20016;-86
2022/06/30 09:31:10;;;;;;;16.08;10.68;;;25.10;99.90;;;;;;6285511;22;20043;-86
2022/06/30 09:33:39;;;;;;;16.88;12.50;;;25.20;99.90;;;;;;6285035;22;20005;-89
2022/06/30 09:36:25;;;;;;;13.70;11.40;;;25.20;99.90;;;;;;6284659;22;20015;-86
2022/06/30 09:39:08;;;;;;;13.20;10.48;;;25.20;99.90;;;;;;6287217;22;20063;-84
2022/06/30 09:41:36;;;;;;;13.90;10.77;;;25.30;99.90;;;;;;6255877;22;20019;-87
2022/06/30 09:44:18;;;;;;;15.95;10.70;;;25.30;99.90;;;;;;6230917;22;20047;-86
2022/06/30 09:47:15;;;;;;;15.38;11.05;;;25.30;99.90;;;;;;6260214;22;20015;-83
2022/06/30 09:49:44;;;;;;;18.00;12.68;;;25.40;99.90;;;;;;6252475;22;20022;-83
2022/06/30 09:52:25;;;;;;;14.45;12.15;;;25.50;99.90;;;;;;6258524;22;20017;-88
2022/06/30 09:55:02;;;;;;;20.30;13.57;;;25.60;99.90;;;;;;6261258;22;20008;-86
2022/06/30 09:57:36;;;;;;;16.58;14.20;;;25.60;99.90;;;;;;6234367;22;20055;-87
2022/06/30 10:00:14;;;;;;;19.92;14.18;;;25.70;99.90;;;;;;6286727;22;20014;-89
2022/06/30 10:02:48;;;;;;;17.98;13.90;;;25.70;99.90;;;;;;6236184;22;20022;-84
2022/06/30 10:05:16;;;;;;;17.80;14.55;;;25.70;99.90;;;;;;6283937;22;20080;-85
2022/06/30 10:07:42;;;;;;;17.88;13.65;;;25.70;99.90;;;;;;6256517;22;20016;-84
2022/06/30 10:10:13;;;;;;;18.73;12.57;;;25.60;99.90;;;;;;6256296;22;20034;-86
2022/06/30 10:12:40;;;;;;;21.40;13.63;;;25.80;99.90;;;;;;6231670;22;20063;-85
2022/06/30 10:15:08;;;;;;;18.92;14.38;;;25.90;99.90;;;;;;6284229;22;20014;-86
2022/06/30 10:17:37;;;;;;;18.77;14.50;;;25.90;99.90;;;;;;6255524;22;20023;-88
2022/06/30 10:20:04;;;;;;;16.15;13.43;;;25.70;99.90;;;;;;6283269;22;20065;-87
2022/06/30 10:22:30;;;;;;;16.45;11.85;;;25.70;99.90;;;;;;6230606;22;20037;-85
2022/06/30 10:25:00;;;;;;;18.15;11.98;;;25.80;99.90;;;;;;6231776;22;20043;-89
2022/06/30 10:27:27;;;;;;;14.77;11.70;;;25.90;99.90;;;;;;6232383;22;20019;-88
2022/06/30 10:29:57;;;;;;;18.05;12.98;;;26.00;99.90;;;;;;6284114;22;20007;-87
2022/06/30 10:32:44;;;;;;;22.15;15.30;;;26.10;99.90;;;;;;6282760;22;20430;-87
2022/06/30 10:35:39;;;;;;;17.02;13.13;;;26.10;99.90;;;;;;6257059;22;20012;-87
2022/06/30 10:38:12;;;;;;;;;;;26.20;99.90;;;;;;6233687;22;20016;-87
2022/06/30 10:40:59;;;;;;;10.60;8.93;;;26.20;99.90;;;;;;6258800;22;19933;-86
2022/06/30 10:43:26;;;;;;;13.73;8.82;;;25.90;99.90;;;;;;6231695;22;20432;-85
2022/06/30 10:46:00;;;;;;;12.65;10.18;;;26.10;99.90;;;;;;6254056;22;20015;-88
2022/06/30 10:48:29;;;;;;;11.35;9.18;;;26.10;99.90;;;;;;6231911;22;20066;-86
2022/06/30 10:50:56;;;;;;;15.27;11.88;;;26.10;99.90;;;;;;6256535;22;20022;-85
2022/06/30 10:53:37;;;;;;;16.25;10.38;;;26.10;99.90;;;;;;6256564;22;20334;-86
2022/06/30 10:56:03;;;;;;;14.98;12.00;;;26.10;99.90;;;;;;6283742;22;20015;-85
2022/06/30 10:58:28;;;;;;;17.95;10.73;;;26.10;99.90;;;;;;6284501;22;20091;-84
2022/06/30 11:01:10;;;;;;;12.80;9.82;;;26.20;99.90;;;;;;6257452;22;20049;-86
2022/06/30 11:03:37;;;;;;;10.63;8.95;;;26.30;99.90;;;;;;6285947;22;20044;-86
2022/06/30 11:06:06;;;;;;;16.15;11.88;;;26.40;99.90;;;;;;6230925;22;20023;-86
2022/06/30 11:08:57;;;;;;;16.92;11.13;;;26.40;99.90;;;;;;6256532;22;20067;-85
2022/06/30 11:11:24;;;;;;;11.10;9.05;;;26.50;99.90;;;;;;6261597;22;20012;-84
2022/06/30 11:14:10;;;;;;;14.63;9.82;;;26.70;99.90;;;;;;6260503;22;20053;-84
2022/06/30 11:16:36;;;;;;;15.60;11.95;;;26.80;99.90;;;;;;6275805;22;20064;-87
2022/06/30 11:19:04;;;;;;;17.35;12.50;;;26.80;99.90;;;;;;6261287;22;20044;-84
2022/06/30 11:21:31;;;;;;;20.90;16.08;;;26.80;99.90;;;;;;6261058;22;20015;-83
2022/06/30 11:24:02;;;;;;;20.20;14.45;;;26.90;99.90;;;;;;6263539;22;20346;-85
2022/06/30 11:29:16;;;;;;;15.15;13.35;;;26.90;99.90;;;;;;6290758;22;20012;-86
2022/06/30 11:31:43;;;;;;;18.58;12.25;;;26.90;99.90;;;;;;6289574;22;20086;-85
2022/06/30 11:34:14;;;;;;;14.52;10.52;;;26.90;99.90;;;;;;6239892;22;20008;-85
2022/06/30 11:36:43;;;;;;;12.68;7.75;;;26.80;99.90;;;;;;6289520;22;20012;-87
2022/06/30 11:39:20;;;;;;;15.85;9.25;;;26.80;99.90;;;;;;6286342;22;20087;-86
2022/06/30 11:42:06;;;;;;;9.30;7.22;;;26.50;99.90;;;;;;6286187;22;20460;-81
2022/06/30 11:44:34;;;;;;;15.45;8.48;;;26.70;99.90;;;;;;6234490;22;20026;-88
2022/06/30 11:47:12;;;;;;;10.25;7.55;;;26.50;99.90;;;;;;6257510;22;20012;-85
2022/06/30 11:49:44;;;;;;;11.90;7.07;;;26.40;99.90;;;;;;6256942;22;20011;-87
2022/06/30 11:52:17;;;;;;;13.13;8.02;;;26.30;99.90;;;;;;6286589;22;20016;-88
2022/06/30 11:55:01;;;;;;;11.77;7.43;;;26.40;99.90;;;;;;6286706;22;20011;-85
2022/06/30 11:57:35;;;;;;;11.45;7.28;;;26.50;99.90;;;;;;6288788;22;20019;-87
2022/06/30 12:00:07;;;;;;;10.70;7.43;;;26.70;99.90;;;;;;6258150;22;20129;-84
2022/06/30 12:02:34;;;;;;;11.52;6.53;;;26.50;99.90;;;;;;6284424;22;20016;-86
2022/06/30 12:05:02;;;;;;;12.68;8.52;;;26.70;99.90;;;;;;6258818;22;20503;-85
2022/06/30 12:07:30;;;;;;;13.77;7.68;;;26.60;99.90;;;;;;6259465;22;20342;-88
2022/06/30 12:09:58;;;;;;;13.55;8.85;;;26.70;99.90;;;;;;6285462;22;20008;-87
2022/06/30 12:12:28;;;;;;;12.27;7.65;;;26.60;99.90;;;;;;6260882;22;20018;-85
2022/06/30 12:14:58;;;;;;;15.93;8.65;;;26.50;99.90;;;;;;6288150;22;20012;-85
2022/06/30 12:17:25;;;;;;;16.25;10.73;;;26.60;99.90;;;;;;6256756;22;20042;-86
2022/06/30 12:19:54;;;;;;;15.85;10.73;;;26.40;99.90;;;;;;6232679;22;20015;-87
2022/06/30 12:22:20;;;;;;;13.73;10.50;;;26.20;99.90;;;;;;6256548;22;20016;-85
2022/06/30 12:24:48;;;;;;;16.27;11.73;;;26.20;99.90;;;;;;6280902;22;20372;-86
2022/06/30 12:27:29;;;;;;;15.25;10.80;;;26.20;99.90;;;;;;6285932;22;20468;-88
2022/06/30 12:30:04;;;;;;;14.75;10.25;;;26.40;99.90;;;;;;6257945;22;20012;-87
2022/06/30 12:32:30;;;;;;;;;;;26.40;99.90;;;;;;6260595;22;20019;-85
2022/06/30 12:34:58;;;;;;;13.57;10.32;;;26.60;99.90;;;;;;6284315;22;20233;-90
2022/06/30 12:37:33;;;;;;;13.35;9.35;;;26.40;99.90;;;;;;6232234;22;20016;-84
2022/06/30 12:40:00;;;;;;;;;;;26.20;99.90;;;;;;6281841;22;20055;-85
2022/06/30 12:42:37;;;;;;;13.88;9.00;;;26.30;99.90;;;;;;6256004;22;19915;-84
2022/06/30 12:45:03;;;;;;;14.00;8.85;;;25.80;99.90;;;;;;6256135;22;20084;-85
2022/06/30 12:47:30;;;;;;;11.75;8.30;;;25.80;99.90;;;;;;6283181;22;20019;-84
2022/06/30 12:49:55;;;;;;;13.02;7.07;;;25.90;99.90;;;;;;6232360;22;20016;-82
2022/06/30 12:52:21;;;;;;;13.43;9.52;;;26.00;99.90;;;;;;6283077;22;20060;-83
2022/06/30 12:54:58;;;;;;;12.85;7.55;;;25.90;99.90;;;;;;6256963;22;20008;-85
2022/06/30 12:57:25;;;;;;;13.70;9.50;;;26.10;99.90;;;;;;6257681;22;20012;-84
2022/06/30 12:59:56;;;;;;;11.75;7.60;;;26.10;99.90;;;;;;6286047;22;20054;-86
2022/06/30 13:02:39;;;;;;;13.95;8.68;;;26.10;99.90;;;;;;6257899;22;20087;-87
2022/06/30 13:05:09;;;;;;;15.15;8.60;;;26.20;99.90;;;;;;6231627;22;20022;-87
2022/06/30 13:07:36;;;;;;;13.07;7.00;;;25.80;99.90;;;;;;6259326;22;20012;-91
2022/06/30 13:10:03;;;;;;;13.73;7.45;;;26.00;99.90;;;;;;6258343;22;20323;-85
2022/06/30 13:12:29;;;;;;;12.88;7.53;;;26.00;99.90;;;;;;6257026;22;20142;-86
2022/06/30 13:14:54;;;;;;;10.23;7.40;;;26.00;99.90;;;;;;6233778;22;20019;-85
2022/06/30 13:17:20;;;;;;;13.57;7.90;;;26.00;99.90;;;;;;6289392;22;20046;-85
2022/06/30 13:19:46;;;;;;;13.80;6.50;;;26.00;99.90;;;;;;6260951;22;20016;-85
2022/06/30 13:22:12;;;;;;;13.27;8.10;;;26.00;99.90;;;;;;6261244;22;20011;-86
2022/06/30 13:24:37;;;;;;;10.50;6.35;;;26.00;99.90;;;;;;6256690;22;20082;-86
2022/06/30 13:27:04;;;;;;;11.15;5.60;;;25.90;99.90;;;;;;6286740;22;20015;-87
2022/06/30 13:29:35;;;;;;;10.20;5.63;;;26.00;99.90;;;;;;6286979;22;20011;-87
2022/06/30 13:32:01;;;;;;;15.15;5.68;;;26.00;99.90;;;;;;6263113;22;20438;-86
2022/06/30 13:34:28;;;;;;;10.75;4.88;;;26.00;99.90;;;;;;6269950;22;19996;-81
2022/06/30 13:36:54;;;;;;;9.35;4.93;;;25.80;99.90;;;;;;6271099;22;20014;-85
2022/06/30 13:39:20;;;;;;;10.68;5.18;;;25.80;99.90;;;;;;6272904;22;20008;-81
2022/06/30 13:41:46;;;;;;;9.20;5.63;;;25.90;99.90;;;;;;6245206;22;20047;-84
2022/06/30 13:44:12;;;;;;;7.80;4.90;;;25.80;99.90;;;;;;6286400;22;20015;-84
2022/06/30 13:46:38;;;;;;;8.43;4.78;;;25.60;99.90;;;;;;6285138;22;20008;-85
2022/06/30 13:49:05;;;;;;;8.95;5.35;;;25.50;99.90;;;;;;6285260;22;20004;-81
2022/06/30 13:51:34;;;;;;;7.50;4.15;;;25.60;99.90;;;;;;6280660;22;20016;-84
2022/06/30 13:54:00;;;;;;;9.60;4.90;;;25.70;99.90;;;;;;6260273;22;20014;-85
2022/06/30 13:56:27;;;;;;;7.90;4.95;;;25.70;99.90;;;;;;6289555;22;20061;-86
2022/06/30 13:58:56;;;;;;;10.77;3.70;;;25.70;99.90;;;;;;6236566;22;20460;-85
2022/06/30 14:01:22;;;;;;;7.97;3.60;;;25.70;99.90;;;;;;6260260;22;20016;-84
2022/06/30 14:03:48;;;;;;;7.70;3.80;;;25.70;99.90;;;;;;6261232;22;20045;-85
2022/06/30 14:06:14;;;;;;;11.68;4.55;;;25.70;99.90;;;;;;6288016;22;20012;-85
2022/06/30 14:08:40;;;;;;;7.32;4.63;;;25.70;99.90;;;;;;6235363;22;20037;-87
2022/06/30 14:11:06;;;;;;;9.63;6.05;;;25.80;99.90;;;;;;6286756;22;20046;-84
2022/06/30 14:13:31;;;;;;;9.13;5.45;;;25.80;99.90;;;;;;6261242;22;20008;-84
2022/06/30 14:15:57;;;;;;;8.05;4.75;;;25.90;99.90;;;;;;6286528;22;20012;-85
2022/06/30 14:18:24;;;;;;;10.23;6.80;;;25.70;99.90;;;;;;6259325;22;20019;-87
2022/06/30 14:20:50;;;;;;;13.25;7.90;;;25.60;99.90;;;;;;6260217;22;20053;-86
2022/06/30 14:23:16;;;;;;;12.57;7.13;;;25.60;99.90;;;;;;6286558;22;20011;-85
2022/06/30 14:25:41;;;;;;;9.13;5.70;;;25.60;99.90;;;;;;6286446;22;20349;-87
2022/06/30 14:28:08;;;;;;;10.02;6.18;;;25.70;99.90;;;;;;6233517;22;20019;-85
2022/06/30 14:30:34;;;;;;;10.52;6.00;;;25.70;99.90;;;;;;6259276;22;20010;-86
2022/06/30 14:33:03;;;;;;;8.25;4.97;;;25.80;99.90;;;;;;6233992;22;20012;-84
2022/06/30 14:35:30;;;;;;;14.05;6.72;;;26.00;99.90;;;;;;6233075;22;20082;-85
2022/06/30 14:37:56;;;;;;;9.48;5.38;;;25.90;99.90;;;;;;6286001;22;20008;-85
2022/06/30 14:40:22;;;;;;;8.57;6.13;;;26.00;99.90;;;;;;6286428;22;20035;-84
2022/06/30 14:42:50;;;;;;;9.38;4.97;;;26.10;99.90;;;;;;6288481;22;20031;-87
2022/06/30 14:45:27;;;;;;;11.13;5.10;;;26.10;99.90;;;;;;6260202;22;20008;-87
2022/06/30 14:47:54;;;;;;;9.77;5.47;;;26.20;99.90;;;;;;6259859;22;20055;-84
2022/06/30 14:50:21;;;;;;;9.63;5.05;;;26.00;99.90;;;;;;6260084;22;20019;-84
2022/06/30 14:52:48;;;;;;;8.55;4.97;;;26.10;99.90;;;;;;6286154;22;20008;-83
2022/06/30 14:55:15;;;;;;;7.72;4.78;;;26.20;99.90;;;;;;6257587;22;20018;-83
2022/06/30 14:57:43;;;;;;;10.70;5.13;;;26.20;99.90;;;;;;6259147;22;20047;-86
2022/06/30 15:00:11;;;;;;;6.80;4.55;;;26.20;99.90;;;;;;6235775;22;20050;-85
2022/06/30 15:02:37;;;;;;;7.75;4.32;;;26.10;99.90;;;;;;6261253;22;20012;-85
2022/06/30 15:05:07;;;;;;;6.93;3.80;;;26.10;99.90;;;;;;6235245;22;20008;-85
2022/06/30 15:07:33;;;;;;;10.15;4.30;;;26.20;99.90;;;;;;6260540;22;20035;-86
2022/06/30 15:09:59;;;;;;;6.35;3.72;;;26.20;99.90;;;;;;6261038;22;20012;-84
2022/06/30 15:12:25;;;;;;;8.85;3.55;;;26.20;99.90;;;;;;6287324;22;20373;-85
2022/06/30 15:14:51;;;;;;;6.00;2.90;;;25.80;99.90;;;;;;6287814;22;20015;-87
2022/06/30 15:17:17;;;;;;;4.70;2.80;;;25.80;99.90;;;;;;6233681;22;20318;-84
2022/06/30 15:19:56;;;;;;;;;;;;;;;;;;;;;
2022/06/30 15:25:17;;;;;;;5.80;2.67;;;25.70;99.90;;;;;;6182652;22;20045;-88
2022/06/30 15:27:44;;;;;;;10.32;2.70;;;25.70;99.90;;;;;;6240422;22;20285;-88
2022/06/30 15:30:24;;;;;;;6.13;2.50;;;25.60;99.90;;;;;;6266236;22;20012;-87
2022/06/30 15:32:51;;;;;;;7.03;2.60;;;25.70;99.90;;;;;;6237165;22;20425;-87
2022/06/30 15:35:17;;;;;;;7.00;3.33;;;25.50;99.90;;;;;;6261808;22;20008;-86
2022/06/30 15:37:42;;;;;;;9.20;4.53;;;25.50;99.90;;;;;;6236303;22;20089;-85
2022/06/30 15:40:15;;;;;;;8.38;4.20;;;25.50;99.90;;;;;;6261989;22;20031;-88
2022/06/30 15:42:41;;;;;;;7.45;4.13;;;25.30;99.90;;;;;;6263822;22;20011;-86
2022/06/30 15:45:08;;;;;;;9.98;4.72;;;25.20;99.90;;;;;;6239735;22;20011;-86
2022/06/30 15:47:34;;;;;;;8.73;4.95;;;25.20;99.90;;;;;;6240234;22;20346;-88
2022/06/30 15:49:59;;;;;;;7.10;4.30;;;25.30;99.90;;;;;;6287935;22;20012;-85
2022/06/30 15:52:26;;;;;;;8.65;4.97;;;25.50;99.90;;;;;;6235762;22;20008;-86
2022/06/30 15:54:53;;;;;;;8.80;4.45;;;25.70;99.90;;;;;;6288220;22;20087;-82
2022/06/30 15:57:19;;;;;;;5.70;2.90;;;25.70;99.90;;;;;;6260771;22;20016;-86
2022/06/30 15:59:45;;;;;;;6.72;4.03;;;25.80;99.90;;;;;;6260734;22;20020;-85